createdAt,value
2022-10-13T00:03:11.232Z,101815.22
2022-10-13T00:08:36.342Z,101814.19
2022-10-13T00:14:01.011Z,101829.81
2022-10-13T00:19:25.199Z,101823.94
2022-10-13T00:24:52.991Z,101806.72
2022-10-13T00:30:16.308Z,101815.34
2022-10-13T00:35:42.306Z,101821.44
2022-10-13T00:41:08.783Z,101824.19
2022-10-13T00:46:34.192Z,101816.25
2022-10-13T00:51:57.358Z,101814.50
2022-10-13T00:57:21.867Z,101831.03
2022-10-13T01:02:44.930Z,101827.53
2022-10-13T01:08:08.220Z,101816.13
2022-10-13T01:13:36.016Z,101809.91
2022-10-13T01:19:06.654Z,101812.50
2022-10-13T01:24:41.673Z,101799.56
2022-10-13T01:30:12.071Z,101797.78
2022-10-13T01:35:44.573Z,101784.56
2022-10-13T01:41:12.949Z,101806.31
2022-10-13T01:46:38.912Z,101776.03
2022-10-13T01:52:04.833Z,101782.81
2022-10-13T01:57:31.881Z,101780.13
2022-10-13T02:03:04.899Z,101774.16
2022-10-13T02:08:32.390Z,101759.25
2022-10-13T02:14:00.777Z,101762.06
2022-10-13T02:19:26.354Z,101753.31
2022-10-13T02:24:49.440Z,101748.69
2022-10-13T02:30:22.294Z,101744.28
2022-10-13T02:35:46.707Z,101747.84
2022-10-13T02:41:09.740Z,101743.53
2022-10-13T02:46:32.843Z,101737.25
2022-10-13T02:51:57.209Z,101735.31
2022-10-13T02:57:20.251Z,101719.47
2022-10-13T03:02:44.330Z,101717.03
2022-10-13T03:08:08.851Z,101705.47
2022-10-13T03:13:32.965Z,101702.56
2022-10-13T03:19:02.475Z,101702.44
2022-10-13T03:24:26.856Z,101699.88
2022-10-13T03:29:49.865Z,101700.81
2022-10-13T03:35:12.909Z,101697.50
2022-10-13T03:40:37.901Z,101687.13
2022-10-13T03:46:02.345Z,101684.19
2022-10-13T03:51:25.619Z,101694.53
2022-10-13T03:56:50.261Z,101679.69
2022-10-13T04:02:13.239Z,101683.00
2022-10-13T04:07:36.264Z,101674.22
2022-10-13T04:13:09.582Z,101675.97
2022-10-13T04:18:34.907Z,101670.63
2022-10-13T04:23:58.580Z,101666.97
2022-10-13T04:29:23.004Z,101669.50
2022-10-13T04:34:48.087Z,101674.69
2022-10-13T04:40:12.329Z,101661.47
2022-10-13T04:45:36.697Z,101654.50
2022-10-13T04:51:00.999Z,101668.47
2022-10-13T04:56:24.781Z,101665.78
2022-10-13T05:01:49.237Z,101670.81
2022-10-13T05:07:17.928Z,101666.41
2022-10-13T05:12:41.946Z,101656.00
2022-10-13T05:18:06.711Z,101659.09
2022-10-13T05:23:29.737Z,101660.88
2022-10-13T05:28:52.883Z,101665.16
2022-10-13T05:34:17.272Z,101668.50
2022-10-13T05:39:42.192Z,101666.84
2022-10-13T05:45:06.245Z,101645.22
2022-10-13T05:50:30.895Z,101645.03
2022-10-13T05:55:54.769Z,101640.66
2022-10-13T06:01:20.266Z,101640.63
2022-10-13T06:06:44.781Z,101639.25
2022-10-13T06:12:08.815Z,101641.81
2022-10-13T06:17:31.952Z,101648.81
2022-10-13T06:22:56.998Z,101641.00
2022-10-13T06:28:23.865Z,101649.72
2022-10-13T06:33:46.932Z,101641.81
2022-10-13T06:39:11.703Z,101631.28
2022-10-13T06:44:34.922Z,101634.81
2022-10-13T06:49:57.974Z,101630.16
2022-10-13T06:55:22.374Z,101633.53
2022-10-13T07:00:45.527Z,101594.41
2022-10-13T07:06:09.304Z,101640.72
2022-10-13T07:11:34.028Z,101643.47
2022-10-13T07:16:57.148Z,101632.19
2022-10-13T07:22:20.289Z,101630.91
2022-10-13T07:27:48.076Z,101635.34
2022-10-13T07:33:12.188Z,101628.19
2022-10-13T07:38:36.619Z,101629.66
2022-10-13T07:44:01.442Z,101627.72
2022-10-13T07:49:24.808Z,101626.81
2022-10-13T07:54:48.068Z,101623.31
2022-10-13T08:00:13.666Z,101639.69
2022-10-13T08:05:37.897Z,101635.97
2022-10-13T08:11:02.238Z,101636.50
2022-10-13T08:16:30.050Z,101633.06
2022-10-13T08:21:58.618Z,101640.97
2022-10-13T08:27:37.024Z,101643.22
2022-10-13T08:33:09.479Z,101645.31
2022-10-13T08:38:32.621Z,101649.16
2022-10-13T08:44:47.612Z,101656.56
2022-10-13T08:49:47.639Z,101652.69
2022-10-13T08:55:13.069Z,101648.13
2022-10-13T09:00:38.005Z,101645.38
2022-10-13T09:06:08.294Z,101642.59
2022-10-13T09:11:33.953Z,101646.59
2022-10-13T09:16:58.714Z,101627.88
2022-10-13T09:22:28.675Z,101629.63
2022-10-13T09:27:53.936Z,101641.03
2022-10-13T09:33:22.171Z,101618.16
2022-10-13T09:39:08.327Z,101617.81
2022-10-13T09:44:33.085Z,101625.03
2022-10-13T09:50:06.510Z,101618.63
2022-10-13T09:55:36.399Z,101628.19
2022-10-13T10:01:00.267Z,101635.28
2022-10-13T10:06:27.826Z,101636.44
2022-10-13T10:11:57.190Z,101634.84
2022-10-13T10:17:34.158Z,101637.06
2022-10-13T10:23:05.268Z,101641.84
2022-10-13T10:28:49.105Z,101640.28
2022-10-13T10:34:36.153Z,101639.72
2022-10-13T10:40:06.275Z,101633.47
2022-10-13T10:45:32.713Z,101636.22
2022-10-13T10:50:55.972Z,101621.56
2022-10-13T10:56:24.051Z,101617.03
2022-10-13T11:02:01.126Z,101608.88
2022-10-13T11:07:57.862Z,101606.06
2022-10-13T11:13:22.050Z,101599.84
2022-10-13T11:19:05.581Z,101583.03
2022-10-13T11:24:48.568Z,101580.91
2022-10-13T11:30:57.568Z,101586.13
2022-10-13T11:36:44.689Z,101588.25
2022-10-13T11:42:20.885Z,101578.44
2022-10-13T11:48:00.464Z,101580.91
2022-10-13T11:53:28.191Z,101564.47
2022-10-13T11:58:51.280Z,101556.25
2022-10-13T12:04:15.692Z,101545.34
2022-10-13T12:09:50.301Z,101557.09
2022-10-13T12:15:29.360Z,101548.50
2022-10-13T12:20:56.537Z,101544.69
2022-10-13T12:26:22.944Z,101541.25
2022-10-13T12:31:47.400Z,101530.41
2022-10-13T12:37:16.331Z,101538.53
2022-10-13T12:42:40.828Z,101539.00
2022-10-13T12:48:04.165Z,101534.69
2022-10-13T12:53:29.642Z,101533.09
2022-10-13T12:58:54.259Z,101534.50
2022-10-13T13:04:19.975Z,101536.19
2022-10-13T13:09:43.101Z,101542.78
2022-10-13T13:15:21.898Z,101544.84
2022-10-13T13:20:44.980Z,101538.13
2022-10-13T13:26:13.371Z,101531.16
2022-10-13T13:31:37.939Z,101527.28
2022-10-13T13:37:02.607Z,101523.63
2022-10-13T13:42:25.928Z,101520.63
2022-10-13T13:47:50.394Z,101528.84
2022-10-13T13:53:13.535Z,101513.72
2022-10-13T13:58:37.106Z,101538.06
2022-10-13T14:04:02.995Z,101537.84
2022-10-13T14:09:26.308Z,101546.28
2022-10-13T14:14:49.435Z,101544.03
2022-10-13T14:20:18.021Z,101544.72
2022-10-13T14:25:41.280Z,101556.53
2022-10-13T14:31:07.787Z,101539.00
2022-10-13T14:36:32.919Z,101530.22
2022-10-13T14:41:55.985Z,101523.97
2022-10-13T14:47:19.463Z,101520.44
2022-10-13T14:52:44.073Z,101507.94
2022-10-13T14:58:07.172Z,101508.75
2022-10-13T15:03:30.647Z,101497.00
2022-10-13T15:08:55.180Z,101504.53
2022-10-13T15:14:19.939Z,101500.22
2022-10-13T15:19:43.032Z,101501.91
2022-10-13T15:25:10.362Z,101490.34
2022-10-13T15:30:34.395Z,101496.22
2022-10-13T15:36:05.343Z,101493.19
2022-10-13T15:41:29.897Z,101489.41
2022-10-13T15:47:07.351Z,101489.97
2022-10-13T15:52:34.753Z,101472.59
2022-10-13T15:57:59.613Z,101483.81
2022-10-13T16:03:22.620Z,101473.41
2022-10-13T16:08:45.660Z,101468.03
2022-10-13T16:14:10.061Z,101476.13
2022-10-13T16:19:33.297Z,101478.75
2022-10-13T16:24:56.885Z,101479.69
2022-10-13T16:30:21.488Z,101483.34
2022-10-13T16:35:44.625Z,101483.53
2022-10-13T16:41:13.100Z,101490.69
2022-10-13T16:46:38.919Z,101495.16
2022-10-13T16:52:02.482Z,101504.81
2022-10-13T16:57:25.818Z,101515.47
2022-10-13T17:02:50.230Z,101514.75
2022-10-13T17:08:13.393Z,101535.03
2022-10-13T17:13:36.986Z,101531.00
2022-10-13T17:19:01.482Z,101545.06
2022-10-13T17:24:33.577Z,101558.19
2022-10-13T17:29:56.664Z,101557.41
2022-10-13T17:35:21.106Z,101559.47
2022-10-13T17:40:44.192Z,101555.91
2022-10-13T17:46:35.148Z,101547.34
2022-10-13T17:51:57.304Z,101553.72
2022-10-13T17:57:20.692Z,101549.47
2022-10-13T18:02:44.303Z,101548.69
2022-10-13T18:08:08.762Z,101560.03
2022-10-13T18:13:34.892Z,101559.41
2022-10-13T18:18:58.062Z,101560.41
2022-10-13T18:24:23.780Z,101572.75
2022-10-13T18:29:46.790Z,101567.78
2022-10-13T18:35:10.566Z,101578.31
2022-10-13T18:40:34.998Z,101576.81
2022-10-13T18:46:00.220Z,101572.41
2022-10-13T18:51:23.289Z,101573.25
2022-10-13T18:56:47.807Z,101574.25
2022-10-13T19:02:13.944Z,101577.91
2022-10-13T19:07:39.139Z,101577.09
2022-10-13T19:13:03.791Z,101578.78
2022-10-13T19:18:26.816Z,101571.13
2022-10-13T19:23:50.382Z,101561.69
2022-10-13T19:29:17.356Z,101579.22
2022-10-13T19:34:40.439Z,101566.47
2022-10-13T19:40:04.089Z,101571.88
2022-10-13T19:45:31.728Z,101571.88
2022-10-13T19:50:54.835Z,101574.59
2022-10-13T19:56:26.087Z,101582.44
2022-10-13T20:01:50.549Z,101590.31
2022-10-13T20:07:14.123Z,101598.09
2022-10-13T20:12:37.237Z,101599.06
2022-10-13T20:18:01.802Z,101602.41
2022-10-13T20:23:26.723Z,101606.59
2022-10-13T20:28:50.856Z,101596.00
2022-10-13T20:34:15.287Z,101590.75
2022-10-13T20:39:38.519Z,101589.78
2022-10-13T20:45:01.713Z,101596.63
2022-10-13T20:50:26.374Z,101589.63
2022-10-13T20:55:56.378Z,101598.66
2022-10-13T21:01:21.059Z,101597.69
2022-10-13T21:06:45.868Z,101600.19
2022-10-13T21:12:09.088Z,101598.56
2022-10-13T21:17:32.413Z,101594.09
2022-10-13T21:22:58.120Z,101583.56
2022-10-13T21:28:21.211Z,101584.41
2022-10-13T21:33:45.011Z,101582.63
2022-10-13T21:39:10.395Z,101579.22
2022-10-13T21:44:33.530Z,101582.75
2022-10-13T21:49:56.650Z,101582.97
2022-10-13T21:55:21.115Z,101573.31
2022-10-13T22:00:44.366Z,101578.56
2022-10-13T22:06:08.402Z,101574.06
2022-10-13T22:11:35.070Z,101568.09
2022-10-13T22:17:03.121Z,101569.78
2022-10-13T22:22:30.139Z,101560.19
2022-10-13T22:27:55.467Z,101565.50
2022-10-13T22:33:18.697Z,101565.78
2022-10-13T22:38:50.299Z,101568.56
2022-10-13T22:44:14.867Z,101560.88
2022-10-13T22:49:37.931Z,101567.00
2022-10-13T22:55:01.018Z,101561.03
2022-10-13T23:00:25.453Z,101556.59
2022-10-13T23:05:49.453Z,101554.03
2022-10-13T23:11:13.086Z,101548.63
2022-10-13T23:16:37.606Z,101540.78
2022-10-13T23:22:00.752Z,101539.03
2022-10-13T23:27:24.129Z,101521.09
2022-10-13T23:32:49.273Z,101516.66
2022-10-13T23:38:12.354Z,101516.84
2022-10-13T23:43:35.846Z,101517.81
2022-10-13T23:49:00.469Z,101521.31
2022-10-13T23:54:23.704Z,101513.66
2022-10-13T23:59:47.186Z,101519.00
